createdAt,value
2017-12-03T00:00:23.592Z,19.53
2017-12-03T00:02:51.223Z,20.60
2017-12-03T00:05:18.813Z,17.97
2017-12-03T00:07:46.419Z,15.70
2017-12-03T00:10:14.098Z,21.70
2017-12-03T00:12:41.713Z,22.17
2017-12-03T00:15:09.333Z,23.80
2017-12-03T00:17:36.987Z,17.50
2017-12-03T00:20:04.660Z,17.93
2017-12-03T00:22:32.312Z,17.43
2017-12-03T00:24:59.975Z,18.60
2017-12-03T00:27:27.584Z,17.90
2017-12-03T00:29:55.163Z,13.10
2017-12-03T00:32:22.772Z,15.33
2017-12-03T00:34:50.364Z,12.13
2017-12-03T00:37:17.963Z,10.47
2017-12-03T00:39:45.561Z,16.47
2017-12-03T00:42:14.031Z,16.20
2017-12-03T00:44:41.627Z,13.70
2017-12-03T00:47:09.210Z,15.87
2017-12-03T00:49:36.916Z,15.50
2017-12-03T00:52:04.584Z,18.00
2017-12-03T00:54:32.248Z,16.90
2017-12-03T00:57:00.600Z,16.93
2017-12-03T00:59:28.279Z,15.13
2017-12-03T01:01:55.936Z,15.93
2017-12-03T01:04:23.612Z,19.37
2017-12-03T01:06:51.268Z,15.60
2017-12-03T01:09:18.876Z,20.87
2017-12-03T01:11:46.460Z,16.57
2017-12-03T01:14:14.072Z,18.50
2017-12-03T01:16:42.540Z,20.50
2017-12-03T01:19:10.205Z,14.90
2017-12-03T01:21:37.820Z,20.33
2017-12-03T01:24:05.420Z,16.00
2017-12-03T01:26:33.028Z,15.13
2017-12-03T01:29:00.617Z,17.17
2017-12-03T01:31:28.248Z,16.07
2017-12-03T01:33:55.831Z,18.83
2017-12-03T01:36:23.536Z,21.10
2017-12-03T01:38:51.129Z,18.60
2017-12-03T01:41:18.851Z,15.37
2017-12-03T01:43:47.195Z,17.17
2017-12-03T01:46:14.891Z,16.40
2017-12-03T01:48:42.476Z,18.40
2017-12-03T01:51:10.841Z,20.90
2017-12-03T01:53:38.499Z,18.53
2017-12-03T01:56:06.169Z,16.40
2017-12-03T01:58:33.823Z,18.70
2017-12-03T02:01:01.430Z,13.87
2017-12-03T02:03:29.017Z,13.93
2017-12-03T02:05:56.628Z,17.60
2017-12-03T02:08:24.983Z,19.03
2017-12-03T02:10:52.642Z,16.10
2017-12-03T02:13:20.311Z,12.17
2017-12-03T02:15:47.975Z,18.30
2017-12-03T02:18:15.581Z,16.53
2017-12-03T02:20:43.167Z,14.13
2017-12-03T02:23:10.772Z,15.13
2017-12-03T02:25:38.355Z,14.90
2017-12-03T02:28:06.804Z,16.40
2017-12-03T02:30:34.463Z,14.37
2017-12-03T02:33:02.126Z,15.40
2017-12-03T02:35:29.796Z,13.43
2017-12-03T02:37:57.408Z,15.53
2017-12-03T02:40:24.991Z,10.63
2017-12-03T02:42:52.586Z,12.43
2017-12-03T02:45:20.947Z,13.17
2017-12-03T02:47:48.578Z,15.77
2017-12-03T02:50:16.159Z,14.93
2017-12-03T02:52:43.840Z,16.37
2017-12-03T02:55:11.504Z,17.67
2017-12-03T02:57:39.079Z,19.90
2017-12-03T03:00:07.454Z,20.33
2017-12-03T03:02:35.103Z,17.43
2017-12-03T03:05:03.589Z,19.53
2017-12-03T03:07:31.172Z,17.70
2017-12-03T03:09:59.623Z,18.53
2017-12-03T03:12:27.215Z,17.93
2017-12-03T03:14:55.672Z,18.83
2017-12-03T03:17:23.326Z,22.03
2017-12-03T03:19:50.932Z,20.03
2017-12-03T03:22:18.559Z,19.47
2017-12-03T03:24:46.958Z,15.70
2017-12-03T03:27:15.316Z,17.87
2017-12-03T03:29:43.046Z,18.03
2017-12-03T03:32:10.741Z,18.10
2017-12-03T03:34:39.228Z,19.40
2017-12-03T03:37:07.631Z,18.27
2017-12-03T03:39:35.987Z,23.17
2017-12-03T03:42:04.395Z,21.75
2017-12-03T03:44:32.003Z,18.73
2017-12-03T03:46:59.692Z,17.77
2017-12-03T03:49:28.172Z,18.50
2017-12-03T03:51:55.775Z,29.37
2017-12-03T03:54:23.395Z,19.03
2017-12-03T03:56:51.792Z,18.08
2017-12-03T03:59:20.259Z,18.30
2017-12-03T04:01:48.740Z,19.35
2017-12-03T04:04:17.119Z,19.62
2017-12-03T04:06:45.523Z,17.60
2017-12-03T04:09:13.979Z,19.57
2017-12-03T04:11:42.455Z,18.62
2017-12-03T04:14:10.944Z,15.75
2017-12-03T04:16:39.320Z,18.67
2017-12-03T04:19:06.988Z,19.07
2017-12-03T04:21:34.652Z,23.53
2017-12-03T04:24:02.311Z,26.03
2017-12-03T04:26:29.899Z,18.53
2017-12-03T04:28:58.268Z,18.10
2017-12-03T04:31:26.619Z,22.50
2017-12-03T04:33:54.297Z,26.30
2017-12-03T04:36:21.955Z,25.23
2017-12-03T04:38:50.440Z,27.58
2017-12-03T04:41:18.104Z,23.33
2017-12-03T04:43:46.583Z,24.27
2017-12-03T04:46:14.180Z,30.90
2017-12-03T04:48:41.806Z,32.67
2017-12-03T04:51:09.420Z,25.50
2017-12-03T04:53:37.031Z,26.83
2017-12-03T04:56:04.639Z,28.50
2017-12-03T04:58:32.247Z,32.75
2017-12-03T05:01:00.735Z,31.83
2017-12-03T05:03:28.323Z,34.23
2017-12-03T05:05:56.063Z,26.60
2017-12-03T05:08:23.652Z,33.30
2017-12-03T05:10:51.268Z,32.20
2017-12-03T05:13:18.880Z,30.27
2017-12-03T05:15:47.255Z,27.57
2017-12-03T05:18:14.888Z,38.50
2017-12-03T05:20:43.372Z,34.55
2017-12-03T05:23:11.747Z,34.97
2017-12-03T05:25:40.231Z,38.92
2017-12-03T05:28:08.627Z,34.55
2017-12-03T05:30:36.279Z,32.13
2017-12-03T05:33:04.687Z,35.67
2017-12-03T05:35:32.319Z,31.50
2017-12-03T05:37:59.960Z,43.22
2017-12-03T05:40:27.579Z,41.92
2017-12-03T05:42:55.307Z,39.92
2017-12-03T05:45:23.683Z,40.17
2017-12-03T05:47:52.168Z,39.63
2017-12-03T05:50:20.539Z,43.05
2017-12-03T05:52:48.208Z,37.23
2017-12-03T05:55:16.587Z,36.15
2017-12-03T05:57:44.983Z,40.20
2017-12-03T06:00:16.926Z,36.37
2017-12-03T06:02:44.596Z,32.90
2017-12-03T06:05:12.187Z,42.33
2017-12-03T06:07:40.635Z,30.03
2017-12-03T06:10:08.244Z,34.40
2017-12-03T06:12:35.835Z,43.13
2017-12-03T06:15:03.523Z,43.40
2017-12-03T06:17:32.003Z,37.30
2017-12-03T06:19:59.672Z,37.87
2017-12-03T06:22:27.335Z,45.40
2017-12-03T06:24:54.947Z,53.03
2017-12-03T06:27:22.535Z,45.03
2017-12-03T06:29:50.140Z,47.70
2017-12-03T06:32:18.595Z,28.73
2017-12-03T06:34:46.203Z,46.43
2017-12-03T06:37:13.819Z,47.47
2017-12-03T06:39:41.423Z,42.87
2017-12-03T06:42:09.044Z,38.50
2017-12-03T06:44:36.707Z,48.87
2017-12-03T06:47:04.368Z,41.60
2017-12-03T06:49:32.035Z,38.33
2017-12-03T06:51:59.695Z,43.47
2017-12-03T06:54:27.355Z,40.03
2017-12-03T06:56:55.086Z,36.67
2017-12-03T06:59:22.672Z,41.80
2017-12-03T07:01:50.275Z,47.10
2017-12-03T07:04:18.723Z,49.60
2017-12-03T07:06:46.327Z,51.00
2017-12-03T07:09:13.899Z,44.70
2017-12-03T07:11:41.514Z,51.00
2017-12-03T07:14:09.099Z,43.37
2017-12-03T07:16:37.551Z,50.47
2017-12-03T07:19:05.215Z,42.10
2017-12-03T07:21:32.820Z,42.80
2017-12-03T07:24:00.410Z,41.60
2017-12-03T07:26:28.016Z,46.63
2017-12-03T07:28:56.366Z,39.80
2017-12-03T07:31:24.087Z,44.27
2017-12-03T07:33:52.416Z,46.47
2017-12-03T07:36:20.027Z,33.20
2017-12-03T07:38:47.612Z,51.50
2017-12-03T07:41:15.218Z,51.07
2017-12-03T07:43:42.795Z,43.57
2017-12-03T07:46:11.184Z,45.80
2017-12-03T07:48:38.771Z,40.93
2017-12-03T07:51:08.719Z,44.30
2017-12-03T07:53:36.384Z,33.23
2017-12-03T07:56:04.047Z,42.37
2017-12-03T07:58:31.713Z,40.90
2017-12-03T08:00:59.304Z,49.93
2017-12-03T08:03:26.935Z,47.53
2017-12-03T08:05:54.591Z,40.40
2017-12-03T08:08:22.196Z,39.90
2017-12-03T08:10:49.784Z,41.80
2017-12-03T08:13:17.391Z,41.03
2017-12-03T08:15:45.035Z,34.90
2017-12-03T08:18:12.640Z,41.97
2017-12-03T08:20:40.259Z,38.60
2017-12-03T08:23:07.884Z,46.70
2017-12-03T08:25:35.475Z,41.50
2017-12-03T08:28:03.060Z,22.07
2017-12-03T08:30:30.674Z,29.80
2017-12-03T08:32:58.363Z,46.50
2017-12-03T08:35:25.972Z,36.07
2017-12-03T08:37:53.555Z,33.40
2017-12-03T08:40:21.262Z,36.37
2017-12-03T08:42:48.849Z,35.83
2017-12-03T08:45:17.219Z,39.60
2017-12-03T08:47:45.571Z,36.33
2017-12-03T08:50:13.177Z,34.63
2017-12-03T08:52:40.803Z,33.00
2017-12-03T08:55:08.475Z,30.60
2017-12-03T08:57:36.202Z,33.20
2017-12-03T09:00:03.887Z,35.43
2017-12-03T09:02:31.551Z,36.73
2017-12-03T09:04:59.220Z,42.80
2017-12-03T09:07:26.808Z,33.70
2017-12-03T09:09:55.187Z,35.73
2017-12-03T09:12:23.539Z,29.17
2017-12-03T09:14:51.208Z,29.47
2017-12-03T09:17:18.864Z,34.17
2017-12-03T09:19:46.452Z,30.40
2017-12-03T09:22:14.824Z,29.47
2017-12-03T09:24:43.289Z,37.10
2017-12-03T09:27:10.951Z,35.50
2017-12-03T09:29:38.607Z,42.53
2017-12-03T09:32:06.240Z,35.13
2017-12-03T09:34:33.827Z,33.37
2017-12-03T09:37:01.435Z,38.83
2017-12-03T09:39:29.030Z,30.67
2017-12-03T09:41:56.637Z,25.87
2017-12-03T09:44:25.083Z,37.07
2017-12-03T09:46:52.691Z,44.50
2017-12-03T09:49:21.043Z,32.90
2017-12-03T09:51:48.703Z,32.90
2017-12-03T09:54:16.292Z,33.13
2017-12-03T09:56:44.643Z,36.43
2017-12-03T09:59:12.247Z,37.57
2017-12-03T10:01:39.863Z,35.27
2017-12-03T10:04:07.528Z,33.50
2017-12-03T10:06:35.196Z,27.13
2017-12-03T10:09:02.856Z,37.00
2017-12-03T10:11:30.519Z,36.73
2017-12-03T10:13:58.674Z,28.40
2017-12-03T10:16:26.356Z,31.50
2017-12-03T10:18:54.020Z,31.60
2017-12-03T10:21:21.608Z,27.83
2017-12-03T10:23:50.055Z,30.97
2017-12-03T10:26:17.723Z,30.70
2017-12-03T10:28:45.391Z,36.80
2017-12-03T10:31:12.976Z,31.70
2017-12-03T10:33:41.328Z,29.00
2017-12-03T10:36:08.996Z,33.93
2017-12-03T10:38:36.587Z,33.97
2017-12-03T10:41:04.196Z,31.57
2017-12-03T10:43:31.780Z,28.40
2017-12-03T10:45:59.431Z,29.53
2017-12-03T10:48:27.020Z,29.37
2017-12-03T10:50:55.480Z,25.40
2017-12-03T10:53:23.062Z,26.63
2017-12-03T10:55:51.519Z,32.20
2017-12-03T10:58:19.103Z,24.20
2017-12-03T11:00:47.566Z,21.80
2017-12-03T11:03:15.154Z,26.10
2017-12-03T11:05:43.629Z,21.23
2017-12-03T11:08:11.991Z,26.97
2017-12-03T11:10:39.647Z,29.43
2017-12-03T11:13:07.353Z,26.70
2017-12-03T11:15:35.691Z,25.70
2017-12-03T11:18:03.299Z,21.07
2017-12-03T11:20:30.876Z,22.33
2017-12-03T11:22:58.479Z,22.20
2017-12-03T11:25:26.139Z,26.00
2017-12-03T11:27:55.336Z,23.83
2017-12-03T11:30:22.915Z,21.60
2017-12-03T11:32:51.371Z,24.20
2017-12-03T11:35:18.952Z,25.03
2017-12-03T11:37:46.603Z,19.10
2017-12-03T11:40:14.268Z,19.10
2017-12-03T11:42:41.877Z,17.23
2017-12-03T11:45:09.460Z,17.90
2017-12-03T11:47:37.156Z,15.93
2017-12-03T11:50:04.819Z,14.03
2017-12-03T11:52:32.477Z,14.33
2017-12-03T11:55:00.963Z,16.07
2017-12-03T11:57:28.551Z,13.50
2017-12-03T11:59:56.929Z,15.60
2017-12-03T12:02:25.274Z,12.17
2017-12-03T12:04:52.884Z,11.10
2017-12-03T12:07:20.476Z,13.17
2017-12-03T12:09:48.091Z,21.90
2017-12-03T12:12:16.449Z,8.00
2017-12-03T12:14:44.061Z,13.43
2017-12-03T12:17:11.664Z,9.50
2017-12-03T12:19:39.324Z,8.03
2017-12-03T12:22:06.959Z,9.83
2017-12-03T12:24:34.652Z,11.23
2017-12-03T12:27:02.232Z,6.73
2017-12-03T12:29:30.571Z,7.90
2017-12-03T12:31:58.183Z,9.47
2017-12-03T12:34:26.538Z,11.33
2017-12-03T12:36:54.144Z,10.93
2017-12-03T12:39:21.728Z,10.00
2017-12-03T12:41:49.328Z,10.67
2017-12-03T12:44:16.907Z,11.00
2017-12-03T12:46:45.272Z,11.83
2017-12-03T12:49:13.632Z,7.10
2017-12-03T12:51:41.291Z,7.87
2017-12-03T12:54:08.961Z,7.93
2017-12-03T12:56:36.575Z,6.40
2017-12-03T12:59:04.151Z,13.20
2017-12-03T13:01:31.739Z,7.83
2017-12-03T13:03:59.407Z,10.60
2017-12-03T13:06:27.068Z,6.53
2017-12-03T13:08:54.735Z,10.63
2017-12-03T13:11:22.320Z,8.00
2017-12-03T13:13:50.688Z,7.20
2017-12-03T13:16:19.039Z,9.90
2017-12-03T13:18:46.716Z,6.77
2017-12-03T13:21:14.376Z,9.50
2017-12-03T13:23:42.040Z,8.80
2017-12-03T13:26:09.699Z,8.00
2017-12-03T13:28:37.279Z,10.60
2017-12-03T13:31:05.752Z,8.03
2017-12-03T13:33:33.340Z,7.63
2017-12-03T13:36:01.713Z,7.37
2017-12-03T13:38:30.064Z,8.17
2017-12-03T13:40:57.664Z,8.23
2017-12-03T13:43:25.251Z,7.03
2017-12-03T13:45:52.848Z,9.50
2017-12-03T13:48:20.510Z,9.47
2017-12-03T13:50:48.112Z,9.60
2017-12-03T13:53:15.688Z,9.23
2017-12-03T13:55:43.288Z,8.47
2017-12-03T13:58:10.868Z,9.20
2017-12-03T14:00:39.239Z,8.13
2017-12-03T14:03:06.895Z,8.33
2017-12-03T14:05:34.555Z,9.23
2017-12-03T14:08:02.127Z,8.63
2017-12-03T14:10:29.736Z,8.07
2017-12-03T14:12:57.334Z,10.37
2017-12-03T14:15:24.911Z,8.27
2017-12-03T14:17:52.515Z,9.27
2017-12-03T14:20:20.128Z,7.37
2017-12-03T14:22:47.723Z,9.37
2017-12-03T14:25:15.303Z,11.70
2017-12-03T14:27:43.016Z,10.90
2017-12-03T14:30:10.671Z,19.33
2017-12-03T14:35:14.104Z,31.73
2017-12-03T14:37:42.475Z,37.97
2017-12-03T14:40:10.059Z,10.90
2017-12-03T14:42:38.418Z,7.30
2017-12-03T14:45:05.996Z,11.63
2017-12-03T14:47:34.359Z,8.47
2017-12-03T14:50:01.941Z,9.90
2017-12-03T14:52:30.314Z,7.47
2017-12-03T14:54:58.776Z,10.23
2017-12-03T14:57:26.383Z,6.90
2017-12-03T14:59:53.964Z,6.93
2017-12-03T15:02:21.544Z,6.80
2017-12-03T15:04:49.232Z,6.30
2017-12-03T15:07:17.579Z,6.30
2017-12-03T15:09:45.180Z,7.53
2017-12-03T15:12:13.560Z,8.27
2017-12-03T15:14:41.931Z,10.73
2017-12-03T15:17:10.299Z,7.53
2017-12-03T15:19:37.900Z,5.70
2017-12-03T15:22:05.518Z,6.97
2017-12-03T15:24:33.183Z,6.30
2017-12-03T15:27:00.754Z,7.63
2017-12-03T15:29:28.403Z,5.97
2017-12-03T15:31:55.980Z,8.37
2017-12-03T15:34:24.372Z,6.47
2017-12-03T15:36:52.719Z,7.67
2017-12-03T15:39:20.304Z,5.77
2017-12-03T15:41:48.771Z,6.13
2017-12-03T15:44:16.444Z,5.97
2017-12-03T15:46:44.163Z,6.43
2017-12-03T15:49:11.747Z,6.10
2017-12-03T15:51:39.356Z,6.20
2017-12-03T15:54:06.935Z,5.50
2017-12-03T15:56:34.540Z,5.57
2017-12-03T15:59:03.736Z,7.20
2017-12-03T16:01:31.340Z,6.17
2017-12-03T16:03:58.969Z,5.80
2017-12-03T16:06:26.571Z,6.70
2017-12-03T16:08:54.184Z,6.40
2017-12-03T16:11:21.804Z,7.87
2017-12-03T16:13:49.383Z,6.33
2017-12-03T16:16:16.955Z,6.73
2017-12-03T16:18:44.552Z,6.83
2017-12-03T16:21:13.012Z,6.50
2017-12-03T16:23:40.671Z,6.00
2017-12-03T16:26:08.251Z,10.17
2017-12-03T16:28:36.719Z,7.80
2017-12-03T16:31:04.380Z,7.30
2017-12-03T16:33:32.039Z,14.17
2017-12-03T16:35:59.619Z,8.10
2017-12-03T16:38:28.083Z,13.13
2017-12-03T16:40:55.664Z,11.03
2017-12-03T16:43:24.123Z,7.40
2017-12-03T16:45:51.793Z,10.70
2017-12-03T16:48:19.387Z,17.20
2017-12-03T16:50:47.032Z,11.00
2017-12-03T16:53:15.379Z,11.23
2017-12-03T16:55:42.988Z,10.77
2017-12-03T16:58:10.611Z,9.73
2017-12-03T17:00:39.015Z,11.93
2017-12-03T17:03:07.363Z,12.30
2017-12-03T17:05:35.040Z,12.67
2017-12-03T17:08:02.619Z,9.77
2017-12-03T17:10:31.088Z,13.80
2017-12-03T17:12:58.667Z,15.93
2017-12-03T17:15:27.035Z,13.50
2017-12-03T17:17:54.622Z,14.03
2017-12-03T17:20:22.212Z,15.23
2017-12-03T17:22:49.873Z,13.90
2017-12-03T17:25:17.451Z,15.83
2017-12-03T17:27:45.059Z,14.30
2017-12-03T17:30:13.408Z,12.30
2017-12-03T17:32:41.016Z,18.57
2017-12-03T17:35:08.600Z,15.90
2017-12-03T17:37:36.296Z,16.60
2017-12-03T17:40:03.960Z,18.67
2017-12-03T17:42:31.558Z,18.90
2017-12-03T17:44:59.184Z,24.57
2017-12-03T17:47:26.844Z,17.80
2017-12-03T17:49:54.498Z,23.67
2017-12-03T17:52:22.172Z,16.50
2017-12-03T17:54:49.838Z,19.10
2017-12-03T17:57:17.430Z,16.93
2017-12-03T17:59:45.799Z,27.00
2017-12-03T18:02:14.256Z,25.83
2017-12-03T18:04:41.864Z,21.13
2017-12-03T18:07:09.448Z,22.20
2017-12-03T18:09:37.139Z,17.70
2017-12-03T18:12:04.723Z,22.77
2017-12-03T18:14:33.086Z,21.23
2017-12-03T18:17:00.744Z,27.10
2017-12-03T18:19:28.404Z,18.33
2017-12-03T18:21:56.070Z,24.37
2017-12-03T18:24:23.675Z,33.50
2017-12-03T18:26:51.291Z,29.20
2017-12-03T18:29:18.951Z,29.73
2017-12-03T18:31:46.614Z,24.53
2017-12-03T18:34:14.286Z,36.37
2017-12-03T18:36:41.896Z,35.90
2017-12-03T18:39:09.484Z,29.40
2017-12-03T18:41:37.100Z,30.07
2017-12-03T18:44:04.692Z,29.90
2017-12-03T18:46:32.300Z,27.63
2017-12-03T18:48:59.887Z,39.20
2017-12-03T18:51:27.495Z,48.73
2017-12-03T18:53:55.075Z,23.93
2017-12-03T18:56:22.679Z,28.97
2017-12-03T18:58:50.264Z,30.60
2017-12-03T19:01:17.880Z,31.37
2017-12-03T19:03:46.231Z,27.07
2017-12-03T19:06:13.820Z,31.60
2017-12-03T19:08:42.191Z,24.27
2017-12-03T19:11:10.543Z,28.50
2017-12-03T19:13:38.154Z,30.20
2017-12-03T19:16:05.768Z,36.13
2017-12-03T19:18:33.402Z,33.90
2017-12-03T19:21:00.987Z,41.17
2017-12-03T19:23:28.595Z,40.10
2017-12-03T19:25:56.944Z,43.17
2017-12-03T19:28:24.604Z,37.00
2017-12-03T19:30:52.267Z,51.33
2017-12-03T19:33:19.927Z,36.67
2017-12-03T19:35:47.554Z,44.30
2017-12-03T19:38:15.256Z,28.57
2017-12-03T19:40:43.617Z,38.33
2017-12-03T19:43:11.246Z,34.33
2017-12-03T19:45:38.856Z,31.80
2017-12-03T19:48:06.532Z,41.90
2017-12-03T19:50:34.999Z,31.80
2017-12-03T19:53:02.661Z,31.20
2017-12-03T19:55:30.335Z,35.10
2017-12-03T19:57:57.988Z,32.00
2017-12-03T20:00:25.656Z,34.47
2017-12-03T20:02:53.247Z,27.97
2017-12-03T20:05:20.875Z,41.00
2017-12-03T20:07:48.534Z,34.63
2017-12-03T20:10:16.144Z,35.63
2017-12-03T20:12:43.755Z,34.03
2017-12-03T20:15:12.951Z,33.60
2017-12-03T20:17:40.539Z,34.73
2017-12-03T20:20:08.906Z,41.10
2017-12-03T20:22:36.492Z,35.23
2017-12-03T20:25:04.928Z,36.70
2017-12-03T20:27:32.513Z,34.63
2017-12-03T20:30:01.632Z,29.43
2017-12-03T20:32:29.220Z,28.40
2017-12-03T20:34:56.804Z,47.03
2017-12-03T20:37:24.416Z,36.90
2017-12-03T20:39:52.767Z,39.70
2017-12-03T20:42:20.382Z,31.63
2017-12-03T20:44:47.968Z,38.60
2017-12-03T20:47:15.579Z,33.37
2017-12-03T20:49:43.165Z,50.83
2017-12-03T20:52:10.776Z,37.27
2017-12-03T20:54:39.132Z,38.07
2017-12-03T20:57:06.808Z,34.93
2017-12-03T20:59:34.395Z,34.70
2017-12-03T21:02:02.775Z,45.67
2017-12-03T21:04:31.131Z,37.97
2017-12-03T21:06:58.792Z,51.93
2017-12-03T21:09:26.382Z,41.87
2017-12-03T21:11:54.795Z,35.63
2017-12-03T21:14:22.379Z,41.77
2017-12-03T21:16:50.060Z,43.90
2017-12-03T21:19:19.187Z,37.03
2017-12-03T21:21:47.807Z,43.90
2017-12-03T21:24:15.447Z,39.20
2017-12-03T21:26:43.067Z,38.87
2017-12-03T21:29:10.676Z,48.40
2017-12-03T21:31:38.260Z,41.87
2017-12-03T21:34:05.944Z,44.47
2017-12-03T21:36:33.527Z,52.23
2017-12-03T21:39:01.992Z,36.10
2017-12-03T21:41:29.656Z,53.33
2017-12-03T21:43:57.320Z,39.70
2017-12-03T21:46:24.923Z,55.13
2017-12-03T21:48:52.643Z,45.97
2017-12-03T21:51:20.235Z,55.43
2017-12-03T21:53:48.596Z,33.77
2017-12-03T21:56:17.058Z,57.00
2017-12-03T21:58:44.643Z,35.60
2017-12-03T22:01:13.058Z,42.60
2017-12-03T22:03:40.667Z,48.53
2017-12-03T22:06:08.332Z,57.10
2017-12-03T22:08:35.923Z,50.23
2017-12-03T22:11:04.295Z,45.97
2017-12-03T22:13:32.642Z,54.33
2017-12-03T22:16:00.247Z,50.53
2017-12-03T22:18:27.876Z,49.30
2017-12-03T22:20:55.484Z,39.50
2017-12-03T22:23:23.071Z,41.40
2017-12-03T22:25:50.694Z,48.10
2017-12-03T22:28:18.283Z,32.80
2017-12-03T22:30:45.867Z,35.90
2017-12-03T22:33:13.475Z,45.40
2017-12-03T22:35:41.835Z,27.23
2017-12-03T22:38:10.204Z,36.90
2017-12-03T22:40:37.866Z,33.00
2017-12-03T22:43:05.531Z,24.27
2017-12-03T22:45:33.120Z,39.23
2017-12-03T22:48:01.568Z,25.73
2017-12-03T22:50:29.152Z,30.17
2017-12-03T22:52:57.612Z,27.97
2017-12-03T22:55:25.267Z,18.70
2017-12-03T22:57:52.919Z,33.20
2017-12-03T23:00:36.367Z,22.83
2017-12-03T23:03:03.977Z,35.67
2017-12-03T23:05:31.567Z,30.20
2017-12-03T23:07:59.247Z,19.57
2017-12-03T23:10:26.828Z,26.73
2017-12-03T23:12:54.488Z,26.03
2017-12-03T23:15:22.096Z,40.77
2017-12-03T23:17:49.684Z,27.17
2017-12-03T23:20:17.299Z,25.40
2017-12-03T23:22:44.883Z,18.43
2017-12-03T23:25:12.488Z,19.83
2017-12-03T23:27:40.071Z,21.90
2017-12-03T23:30:08.434Z,24.53
2017-12-03T23:32:36.088Z,26.63
2017-12-03T23:35:03.687Z,15.13
2017-12-03T23:37:31.273Z,31.30
2017-12-03T23:39:58.876Z,22.20
2017-12-03T23:42:26.472Z,32.70
2017-12-03T23:44:54.080Z,21.00
2017-12-03T23:47:21.757Z,21.43
2017-12-03T23:49:49.387Z,27.33
2017-12-03T23:52:16.972Z,21.00
2017-12-03T23:54:44.559Z,29.33
2017-12-03T23:57:12.926Z,18.37
2017-12-03T23:59:40.583Z,17.07
